sensor_id;sensor_type;location;lat;lon;timestamp;P1;durP1;ratioP1;P2;durP2;ratioP2
37559;SDS011;23398;50.928;7.084;2022-12-20T00:01:50;4.20;;;1.60;;
37559;SDS011;23398;50.928;7.084;2022-12-20T00:04:15;1.70;;;1.35;;
37559;SDS011;23398;50.928;7.084;2022-12-20T00:06:41;2.60;;;1.50;;
37559;SDS011;23398;50.928;7.084;2022-12-20T00:09:07;2.25;;;1.40;;
37559;SDS011;23398;50.928;7.084;2022-12-20T00:11:34;1.60;;;1.20;;
37559;SDS011;23398;50.928;7.084;2022-12-20T00:14:02;1.50;;;1.40;;
37559;SDS011;23398;50.928;7.084;2022-12-20T00:16:28;2.13;;;1.50;;
37559;SDS011;23398;50.928;7.084;2022-12-20T00:18:57;2.33;;;1.63;;
37559;SDS011;23398;50.928;7.084;2022-12-20T00:21:25;2.90;;;1.63;;
37559;SDS011;23398;50.928;7.084;2022-12-20T00:23:51;1.88;;;1.50;;
37559;SDS011;23398;50.928;7.084;2022-12-20T00:26:20;1.95;;;1.70;;
37559;SDS011;23398;50.928;7.084;2022-12-20T00:28:47;1.90;;;1.50;;
37559;SDS011;23398;50.928;7.084;2022-12-20T00:31:14;3.30;;;1.70;;
37559;SDS011;23398;50.928;7.084;2022-12-20T00:33:43;1.92;;;1.50;;
37559;SDS011;23398;50.928;7.084;2022-12-20T00:36:10;2.13;;;1.50;;
37559;SDS011;23398;50.928;7.084;2022-12-20T00:38:36;2.10;;;1.80;;
37559;SDS011;23398;50.928;7.084;2022-12-20T00:41:02;1.63;;;1.40;;
37559;SDS011;23398;50.928;7.084;2022-12-20T00:43:28;4.00;;;1.70;;
37559;SDS011;23398;50.928;7.084;2022-12-20T00:45:54;2.72;;;1.65;;
37559;SDS011;23398;50.928;7.084;2022-12-20T00:48:20;2.63;;;1.50;;
37559;SDS011;23398;50.928;7.084;2022-12-20T00:50:46;1.80;;;1.50;;
37559;SDS011;23398;50.928;7.084;2022-12-20T00:53:11;1.67;;;1.40;;
37559;SDS011;23398;50.928;7.084;2022-12-20T00:55:41;2.42;;;1.60;;
37559;SDS011;23398;50.928;7.084;2022-12-20T00:58:08;2.88;;;1.65;;
37559;SDS011;23398;50.928;7.084;2022-12-20T01:00:33;2.90;;;1.65;;
37559;SDS011;23398;50.928;7.084;2022-12-20T01:02:59;4.00;;;1.80;;
37559;SDS011;23398;50.928;7.084;2022-12-20T01:05:24;2.22;;;1.80;;
37559;SDS011;23398;50.928;7.084;2022-12-20T01:07:50;2.05;;;1.70;;
37559;SDS011;23398;50.928;7.084;2022-12-20T01:10:15;2.03;;;1.42;;
37559;SDS011;23398;50.928;7.084;2022-12-20T01:12:42;3.55;;;1.60;;
37559;SDS011;23398;50.928;7.084;2022-12-20T01:15:08;2.25;;;1.73;;
37559;SDS011;23398;50.928;7.084;2022-12-20T01:17:34;3.53;;;1.88;;
37559;SDS011;23398;50.928;7.084;2022-12-20T01:20:00;4.82;;;2.00;;
37559;SDS011;23398;50.928;7.084;2022-12-20T01:22:26;3.03;;;1.65;;
37559;SDS011;23398;50.928;7.084;2022-12-20T01:24:51;2.38;;;1.80;;
37559;SDS011;23398;50.928;7.084;2022-12-20T01:27:17;2.60;;;1.77;;
37559;SDS011;23398;50.928;7.084;2022-12-20T01:29:42;3.33;;;1.80;;
37559;SDS011;23398;50.928;7.084;2022-12-20T01:32:08;2.55;;;1.80;;
37559;SDS011;23398;50.928;7.084;2022-12-20T01:34:34;4.00;;;2.00;;
37559;SDS011;23398;50.928;7.084;2022-12-20T01:36:59;3.35;;;1.95;;
37559;SDS011;23398;50.928;7.084;2022-12-20T01:39:25;2.40;;;1.80;;
37559;SDS011;23398;50.928;7.084;2022-12-20T01:41:50;3.30;;;1.92;;
37559;SDS011;23398;50.928;7.084;2022-12-20T01:46:42;3.35;;;2.15;;
37559;SDS011;23398;50.928;7.084;2022-12-20T01:49:10;3.13;;;2.35;;
37559;SDS011;23398;50.928;7.084;2022-12-20T01:51:44;3.83;;;2.40;;
37559;SDS011;23398;50.928;7.084;2022-12-20T01:54:26;3.35;;;2.13;;
37559;SDS011;23398;50.928;7.084;2022-12-20T01:56:57;2.53;;;2.10;;
37559;SDS011;23398;50.928;7.084;2022-12-20T01:59:26;2.72;;;2.25;;
37559;SDS011;23398;50.928;7.084;2022-12-20T02:01:53;3.20;;;2.38;;
37559;SDS011;23398;50.928;7.084;2022-12-20T02:04:22;3.22;;;2.42;;
37559;SDS011;23398;50.928;7.084;2022-12-20T02:06:47;3.25;;;2.30;;
37559;SDS011;23398;50.928;7.084;2022-12-20T02:09:13;5.65;;;2.45;;
37559;SDS011;23398;50.928;7.084;2022-12-20T02:11:48;2.90;;;2.30;;
37559;SDS011;23398;50.928;7.084;2022-12-20T02:23:08;4.30;;;2.40;;
37559;SDS011;23398;50.928;7.084;2022-12-20T02:31:25;4.03;;;2.40;;
37559;SDS011;23398;50.928;7.084;2022-12-20T02:33:55;2.97;;;2.40;;
37559;SDS011;23398;50.928;7.084;2022-12-20T02:36:22;3.05;;;2.50;;
37559;SDS011;23398;50.928;7.084;2022-12-20T02:38:49;3.28;;;2.45;;
37559;SDS011;23398;50.928;7.084;2022-12-20T02:43:48;3.22;;;2.13;;
37559;SDS011;23398;50.928;7.084;2022-12-20T02:46:36;3.08;;;2.28;;
37559;SDS011;23398;50.928;7.084;2022-12-20T02:49:04;3.80;;;2.50;;
37559;SDS011;23398;50.928;7.084;2022-12-20T02:51:35;3.72;;;2.13;;
37559;SDS011;23398;50.928;7.084;2022-12-20T02:54:01;2.97;;;2.22;;
37559;SDS011;23398;50.928;7.084;2022-12-20T02:56:30;3.10;;;2.15;;
37559;SDS011;23398;50.928;7.084;2022-12-20T02:59:07;2.33;;;2.08;;
37559;SDS011;23398;50.928;7.084;2022-12-20T03:01:44;2.38;;;2.17;;
37559;SDS011;23398;50.928;7.084;2022-12-20T03:04:12;2.60;;;2.17;;
37559;SDS011;23398;50.928;7.084;2022-12-20T03:06:54;3.15;;;2.08;;
37559;SDS011;23398;50.928;7.084;2022-12-20T03:09:25;2.95;;;2.03;;
37559;SDS011;23398;50.928;7.084;2022-12-20T03:11:53;2.50;;;2.10;;
37559;SDS011;23398;50.928;7.084;2022-12-20T03:14:19;3.47;;;2.20;;
37559;SDS011;23398;50.928;7.084;2022-12-20T03:16:45;2.28;;;2.08;;
37559;SDS011;23398;50.928;7.084;2022-12-20T03:19:11;3.40;;;2.22;;
37559;SDS011;23398;50.928;7.084;2022-12-20T03:21:36;2.67;;;2.00;;
37559;SDS011;23398;50.928;7.084;2022-12-20T03:24:02;2.35;;;2.00;;
37559;SDS011;23398;50.928;7.084;2022-12-20T03:26:28;4.28;;;2.33;;
37559;SDS011;23398;50.928;7.084;2022-12-20T03:28:53;4.15;;;2.25;;
37559;SDS011;23398;50.928;7.084;2022-12-20T03:31:19;3.42;;;2.33;;
37559;SDS011;23398;50.928;7.084;2022-12-20T03:33:45;2.40;;;1.98;;
37559;SDS011;23398;50.928;7.084;2022-12-20T03:36:10;3.40;;;2.15;;
37559;SDS011;23398;50.928;7.084;2022-12-20T03:38:36;4.75;;;2.38;;
37559;SDS011;23398;50.928;7.084;2022-12-20T03:41:01;4.25;;;2.50;;
37559;SDS011;23398;50.928;7.084;2022-12-20T03:43:27;3.78;;;2.30;;
37559;SDS011;23398;50.928;7.084;2022-12-20T03:45:52;3.20;;;2.30;;
37559;SDS011;23398;50.928;7.084;2022-12-20T03:48:18;3.25;;;2.38;;
37559;SDS011;23398;50.928;7.084;2022-12-20T03:50:43;3.10;;;2.00;;
37559;SDS011;23398;50.928;7.084;2022-12-20T03:53:09;3.78;;;2.33;;
37559;SDS011;23398;50.928;7.084;2022-12-20T03:55:34;4.90;;;2.30;;
37559;SDS011;23398;50.928;7.084;2022-12-20T03:58:00;3.38;;;2.33;;
37559;SDS011;23398;50.928;7.084;2022-12-20T04:00:26;4.28;;;2.35;;
37559;SDS011;23398;50.928;7.084;2022-12-20T04:02:51;4.63;;;2.30;;
37559;SDS011;23398;50.928;7.084;2022-12-20T04:05:17;2.92;;;2.10;;
37559;SDS011;23398;50.928;7.084;2022-12-20T04:07:43;3.53;;;2.40;;
37559;SDS011;23398;50.928;7.084;2022-12-20T04:10:09;3.13;;;2.35;;
37559;SDS011;23398;50.928;7.084;2022-12-20T04:12:35;2.83;;;1.95;;
37559;SDS011;23398;50.928;7.084;2022-12-20T04:15:01;2.78;;;2.10;;
37559;SDS011;23398;50.928;7.084;2022-12-20T04:17:26;4.43;;;1.98;;
37559;SDS011;23398;50.928;7.084;2022-12-20T04:19:52;3.08;;;2.15;;
37559;SDS011;23398;50.928;7.084;2022-12-20T04:22:17;3.60;;;2.33;;
37559;SDS011;23398;50.928;7.084;2022-12-20T04:24:43;3.95;;;2.10;;
37559;SDS011;23398;50.928;7.084;2022-12-20T04:27:08;3.28;;;2.20;;
37559;SDS011;23398;50.928;7.084;2022-12-20T04:29:34;3.75;;;2.28;;
37559;SDS011;23398;50.928;7.084;2022-12-20T04:31:59;3.63;;;2.30;;
37559;SDS011;23398;50.928;7.084;2022-12-20T04:34:25;5.68;;;2.17;;
37559;SDS011;23398;50.928;7.084;2022-12-20T04:36:50;2.47;;;2.10;;
37559;SDS011;23398;50.928;7.084;2022-12-20T04:39:16;2.92;;;2.10;;
37559;SDS011;23398;50.928;7.084;2022-12-20T04:41:42;6.00;;;2.25;;
37559;SDS011;23398;50.928;7.084;2022-12-20T04:44:07;3.63;;;2.10;;
37559;SDS011;23398;50.928;7.084;2022-12-20T04:46:33;3.40;;;2.22;;
37559;SDS011;23398;50.928;7.084;2022-12-20T04:48:58;2.92;;;2.47;;
37559;SDS011;23398;50.928;7.084;2022-12-20T04:51:24;2.50;;;1.95;;
37559;SDS011;23398;50.928;7.084;2022-12-20T04:53:50;4.88;;;2.30;;
37559;SDS011;23398;50.928;7.084;2022-12-20T04:56:16;4.00;;;2.13;;
37559;SDS011;23398;50.928;7.084;2022-12-20T04:58:48;3.00;;;2.08;;
37559;SDS011;23398;50.928;7.084;2022-12-20T05:01:15;3.40;;;2.20;;
37559;SDS011;23398;50.928;7.084;2022-12-20T05:03:41;3.90;;;2.58;;
37559;SDS011;23398;50.928;7.084;2022-12-20T05:06:07;3.03;;;2.35;;
37559;SDS011;23398;50.928;7.084;2022-12-20T05:08:33;5.82;;;2.60;;
37559;SDS011;23398;50.928;7.084;2022-12-20T05:11:00;3.58;;;2.30;;
37559;SDS011;23398;50.928;7.084;2022-12-20T05:13:25;2.50;;;2.30;;
37559;SDS011;23398;50.928;7.084;2022-12-20T05:15:52;3.20;;;2.38;;
37559;SDS011;23398;50.928;7.084;2022-12-20T05:18:18;4.22;;;2.35;;
37559;SDS011;23398;50.928;7.084;2022-12-20T05:20:45;4.30;;;2.55;;
37559;SDS011;23398;50.928;7.084;2022-12-20T05:23:11;2.30;;;2.10;;
37559;SDS011;23398;50.928;7.084;2022-12-20T05:25:55;4.40;;;2.40;;
37559;SDS011;23398;50.928;7.084;2022-12-20T05:28:39;3.78;;;2.38;;
37559;SDS011;23398;50.928;7.084;2022-12-20T05:31:05;3.70;;;2.30;;
37559;SDS011;23398;50.928;7.084;2022-12-20T05:33:31;2.67;;;2.15;;
37559;SDS011;23398;50.928;7.084;2022-12-20T05:35:56;2.85;;;2.17;;
37559;SDS011;23398;50.928;7.084;2022-12-20T05:38:22;4.18;;;2.50;;
37559;SDS011;23398;50.928;7.084;2022-12-20T05:40:49;3.13;;;2.28;;
37559;SDS011;23398;50.928;7.084;2022-12-20T05:43:15;3.10;;;2.30;;
37559;SDS011;23398;50.928;7.084;2022-12-20T05:45:48;4.20;;;2.60;;
37559;SDS011;23398;50.928;7.084;2022-12-20T05:48:16;3.55;;;2.50;;
37559;SDS011;23398;50.928;7.084;2022-12-20T05:50:44;2.58;;;2.25;;
37559;SDS011;23398;50.928;7.084;2022-12-20T05:53:13;3.97;;;2.40;;
37559;SDS011;23398;50.928;7.084;2022-12-20T05:55:44;3.65;;;2.40;;
37559;SDS011;23398;50.928;7.084;2022-12-20T05:58:11;3.38;;;2.33;;
37559;SDS011;23398;50.928;7.084;2022-12-20T06:00:37;2.72;;;2.30;;
37559;SDS011;23398;50.928;7.084;2022-12-20T06:03:07;4.57;;;2.50;;
37559;SDS011;23398;50.928;7.084;2022-12-20T06:05:35;3.20;;;2.13;;
37559;SDS011;23398;50.928;7.084;2022-12-20T06:08:01;2.83;;;2.25;;
37559;SDS011;23398;50.928;7.084;2022-12-20T06:10:27;3.63;;;2.67;;
37559;SDS011;23398;50.928;7.084;2022-12-20T06:12:53;3.47;;;2.53;;
37559;SDS011;23398;50.928;7.084;2022-12-20T06:15:18;3.33;;;2.45;;
37559;SDS011;23398;50.928;7.084;2022-12-20T06:17:44;3.55;;;2.53;;
37559;SDS011;23398;50.928;7.084;2022-12-20T06:20:10;4.13;;;2.72;;
37559;SDS011;23398;50.928;7.084;2022-12-20T06:22:36;2.78;;;2.45;;
37559;SDS011;23398;50.928;7.084;2022-12-20T06:25:02;3.60;;;2.80;;
37559;SDS011;23398;50.928;7.084;2022-12-20T06:27:28;3.65;;;2.53;;
37559;SDS011;23398;50.928;7.084;2022-12-20T06:29:54;3.67;;;2.50;;
37559;SDS011;23398;50.928;7.084;2022-12-20T06:32:19;3.70;;;2.80;;
37559;SDS011;23398;50.928;7.084;2022-12-20T06:34:45;3.58;;;2.40;;
37559;SDS011;23398;50.928;7.084;2022-12-20T06:37:11;3.42;;;2.38;;
37559;SDS011;23398;50.928;7.084;2022-12-20T06:39:36;3.70;;;2.38;;
37559;SDS011;23398;50.928;7.084;2022-12-20T06:42:02;3.33;;;2.33;;
37559;SDS011;23398;50.928;7.084;2022-12-20T06:44:28;2.60;;;2.13;;
37559;SDS011;23398;50.928;7.084;2022-12-20T06:46:54;3.28;;;2.53;;
37559;SDS011;23398;50.928;7.084;2022-12-20T06:49:19;2.78;;;2.20;;
37559;SDS011;23398;50.928;7.084;2022-12-20T06:51:46;3.80;;;2.55;;
37559;SDS011;23398;50.928;7.084;2022-12-20T06:54:12;3.00;;;2.38;;
37559;SDS011;23398;50.928;7.084;2022-12-20T06:56:37;2.90;;;2.25;;
37559;SDS011;23398;50.928;7.084;2022-12-20T06:59:03;3.13;;;2.47;;
37559;SDS011;23398;50.928;7.084;2022-12-20T07:01:30;2.75;;;2.15;;
37559;SDS011;23398;50.928;7.084;2022-12-20T07:03:55;3.13;;;2.17;;
37559;SDS011;23398;50.928;7.084;2022-12-20T07:06:21;3.15;;;2.35;;
37559;SDS011;23398;50.928;7.084;2022-12-20T07:08:47;2.97;;;2.20;;
37559;SDS011;23398;50.928;7.084;2022-12-20T07:11:13;3.00;;;2.17;;
37559;SDS011;23398;50.928;7.084;2022-12-20T07:13:38;3.90;;;2.30;;
37559;SDS011;23398;50.928;7.084;2022-12-20T07:16:04;3.17;;;2.13;;
37559;SDS011;23398;50.928;7.084;2022-12-20T07:18:30;3.17;;;2.20;;
37559;SDS011;23398;50.928;7.084;2022-12-20T07:21:00;4.60;;;2.55;;
37559;SDS011;23398;50.928;7.084;2022-12-20T07:23:27;3.22;;;2.35;;
37559;SDS011;23398;50.928;7.084;2022-12-20T07:25:56;2.70;;;2.15;;
37559;SDS011;23398;50.928;7.084;2022-12-20T07:28:24;2.92;;;2.20;;
37559;SDS011;23398;50.928;7.084;2022-12-20T07:30:50;3.03;;;2.15;;
37559;SDS011;23398;50.928;7.084;2022-12-20T07:33:15;3.08;;;2.15;;
37559;SDS011;23398;50.928;7.084;2022-12-20T07:35:41;2.65;;;2.13;;
37559;SDS011;23398;50.928;7.084;2022-12-20T07:38:09;4.00;;;2.40;;
37559;SDS011;23398;50.928;7.084;2022-12-20T07:40:38;3.72;;;2.20;;
37559;SDS011;23398;50.928;7.084;2022-12-20T07:43:05;2.53;;;2.00;;
37559;SDS011;23398;50.928;7.084;2022-12-20T07:45:30;4.45;;;2.30;;
37559;SDS011;23398;50.928;7.084;2022-12-20T07:47:56;4.10;;;2.25;;
37559;SDS011;23398;50.928;7.084;2022-12-20T07:50:22;3.20;;;2.33;;
37559;SDS011;23398;50.928;7.084;2022-12-20T07:52:48;4.05;;;2.35;;
37559;SDS011;23398;50.928;7.084;2022-12-20T07:55:14;3.42;;;2.13;;
37559;SDS011;23398;50.928;7.084;2022-12-20T07:57:45;3.60;;;2.35;;
37559;SDS011;23398;50.928;7.084;2022-12-20T08:00:15;3.28;;;2.50;;
37559;SDS011;23398;50.928;7.084;2022-12-20T08:02:51;3.22;;;2.22;;
37559;SDS011;23398;50.928;7.084;2022-12-20T08:05:18;4.55;;;2.58;;
37559;SDS011;23398;50.928;7.084;2022-12-20T08:07:44;4.68;;;2.28;;
37559;SDS011;23398;50.928;7.084;2022-12-20T08:10:11;3.60;;;2.53;;
37559;SDS011;23398;50.928;7.084;2022-12-20T08:12:38;3.17;;;2.40;;
37559;SDS011;23398;50.928;7.084;2022-12-20T08:15:06;3.17;;;2.70;;
37559;SDS011;23398;50.928;7.084;2022-12-20T08:17:32;2.80;;;2.40;;
37559;SDS011;23398;50.928;7.084;2022-12-20T08:19:58;2.70;;;2.33;;
37559;SDS011;23398;50.928;7.084;2022-12-20T08:22:24;4.47;;;2.42;;
37559;SDS011;23398;50.928;7.084;2022-12-20T08:24:50;4.28;;;2.42;;
37559;SDS011;23398;50.928;7.084;2022-12-20T08:27:16;3.70;;;2.42;;
37559;SDS011;23398;50.928;7.084;2022-12-20T08:29:41;4.82;;;2.60;;
37559;SDS011;23398;50.928;7.084;2022-12-20T08:32:07;3.80;;;2.58;;
37559;SDS011;23398;50.928;7.084;2022-12-20T08:34:33;3.90;;;2.83;;
37559;SDS011;23398;50.928;7.084;2022-12-20T08:36:58;3.70;;;2.45;;
37559;SDS011;23398;50.928;7.084;2022-12-20T08:39:24;3.45;;;2.60;;
37559;SDS011;23398;50.928;7.084;2022-12-20T08:41:49;3.35;;;2.30;;
37559;SDS011;23398;50.928;7.084;2022-12-20T08:44:15;3.03;;;2.35;;
37559;SDS011;23398;50.928;7.084;2022-12-20T08:46:40;3.88;;;2.40;;
37559;SDS011;23398;50.928;7.084;2022-12-20T08:49:06;3.10;;;2.10;;
37559;SDS011;23398;50.928;7.084;2022-12-20T08:51:32;3.92;;;2.25;;
37559;SDS011;23398;50.928;7.084;2022-12-20T08:53:57;3.50;;;2.13;;
37559;SDS011;23398;50.928;7.084;2022-12-20T08:56:23;3.35;;;2.30;;
37559;SDS011;23398;50.928;7.084;2022-12-20T08:58:48;3.28;;;2.28;;
37559;SDS011;23398;50.928;7.084;2022-12-20T09:01:15;3.28;;;2.30;;
37559;SDS011;23398;50.928;7.084;2022-12-20T09:03:43;3.03;;;2.22;;
37559;SDS011;23398;50.928;7.084;2022-12-20T09:06:10;2.58;;;2.17;;
37559;SDS011;23398;50.928;7.084;2022-12-20T09:08:38;4.07;;;2.42;;
37559;SDS011;23398;50.928;7.084;2022-12-20T09:11:05;3.00;;;2.28;;
37559;SDS011;23398;50.928;7.084;2022-12-20T09:13:32;2.60;;;2.13;;
37559;SDS011;23398;50.928;7.084;2022-12-20T09:16:02;3.33;;;2.40;;
37559;SDS011;23398;50.928;7.084;2022-12-20T09:18:28;2.55;;;2.28;;
37559;SDS011;23398;50.928;7.084;2022-12-20T09:20:54;3.60;;;2.20;;
37559;SDS011;23398;50.928;7.084;2022-12-20T09:23:22;2.60;;;2.00;;
37559;SDS011;23398;50.928;7.084;2022-12-20T09:25:48;5.68;;;2.22;;
37559;SDS011;23398;50.928;7.084;2022-12-20T09:28:14;3.47;;;2.10;;
37559;SDS011;23398;50.928;7.084;2022-12-20T09:30:39;3.38;;;2.10;;
37559;SDS011;23398;50.928;7.084;2022-12-20T09:33:05;3.20;;;2.00;;
37559;SDS011;23398;50.928;7.084;2022-12-20T09:35:30;3.20;;;2.10;;
37559;SDS011;23398;50.928;7.084;2022-12-20T09:37:57;3.53;;;2.00;;
37559;SDS011;23398;50.928;7.084;2022-12-20T09:40:23;2.60;;;2.10;;
37559;SDS011;23398;50.928;7.084;2022-12-20T09:42:54;3.30;;;2.15;;
37559;SDS011;23398;50.928;7.084;2022-12-20T09:45:27;2.83;;;2.38;;
37559;SDS011;23398;50.928;7.084;2022-12-20T09:47:55;3.80;;;2.30;;
37559;SDS011;23398;50.928;7.084;2022-12-20T09:50:33;4.22;;;2.35;;
37559;SDS011;23398;50.928;7.084;2022-12-20T09:53:13;4.50;;;2.63;;
37559;SDS011;23398;50.928;7.084;2022-12-20T09:55:53;3.38;;;2.20;;
37559;SDS011;23398;50.928;7.084;2022-12-20T10:01:21;3.50;;;2.30;;
37559;SDS011;23398;50.928;7.084;2022-12-20T10:03:48;4.57;;;2.50;;
37559;SDS011;23398;50.928;7.084;2022-12-20T10:06:39;3.78;;;2.70;;
37559;SDS011;23398;50.928;7.084;2022-12-20T10:09:04;4.95;;;2.42;;
37559;SDS011;23398;50.928;7.084;2022-12-20T10:11:45;2.85;;;2.30;;
37559;SDS011;23398;50.928;7.084;2022-12-20T10:14:45;2.95;;;2.17;;
37559;SDS011;23398;50.928;7.084;2022-12-20T10:17:42;3.08;;;2.30;;
37559;SDS011;23398;50.928;7.084;2022-12-20T10:22:53;2.30;;;2.00;;
37559;SDS011;23398;50.928;7.084;2022-12-20T10:25:47;2.53;;;2.05;;
37559;SDS011;23398;50.928;7.084;2022-12-20T10:28:15;4.18;;;2.28;;
37559;SDS011;23398;50.928;7.084;2022-12-20T10:30:41;2.95;;;2.08;;
37559;SDS011;23398;50.928;7.084;2022-12-20T10:33:13;3.85;;;2.28;;
37559;SDS011;23398;50.928;7.084;2022-12-20T10:35:46;3.60;;;2.17;;
37559;SDS011;23398;50.928;7.084;2022-12-20T10:38:13;5.97;;;2.20;;
37559;SDS011;23398;50.928;7.084;2022-12-20T10:43:20;4.00;;;2.45;;
37559;SDS011;23398;50.928;7.084;2022-12-20T10:45:57;4.85;;;2.30;;
37559;SDS011;23398;50.928;7.084;2022-12-20T10:48:39;3.83;;;2.25;;
37559;SDS011;23398;50.928;7.084;2022-12-20T10:53:34;3.17;;;2.05;;
37559;SDS011;23398;50.928;7.084;2022-12-20T11:01:44;4.68;;;2.33;;
37559;SDS011;23398;50.928;7.084;2022-12-20T11:04:28;4.45;;;2.33;;
37559;SDS011;23398;50.928;7.084;2022-12-20T11:06:59;3.13;;;2.28;;
37559;SDS011;23398;50.928;7.084;2022-12-20T11:09:28;5.90;;;2.45;;
37559;SDS011;23398;50.928;7.084;2022-12-20T11:14:40;4.80;;;2.30;;
37559;SDS011;23398;50.928;7.084;2022-12-20T11:22:54;4.45;;;2.42;;
37559;SDS011;23398;50.928;7.084;2022-12-20T11:28:56;3.38;;;2.10;;
37559;SDS011;23398;50.928;7.084;2022-12-20T11:48:05;3.58;;;2.17;;
37559;SDS011;23398;50.928;7.084;2022-12-20T11:53:42;2.50;;;2.10;;
37559;SDS011;23398;50.928;7.084;2022-12-20T11:56:20;3.17;;;2.17;;
37559;SDS011;23398;50.928;7.084;2022-12-20T11:58:54;2.28;;;1.60;;
37559;SDS011;23398;50.928;7.084;2022-12-20T12:01:31;4.18;;;2.00;;
37559;SDS011;23398;50.928;7.084;2022-12-20T12:07:00;2.33;;;1.90;;
37559;SDS011;23398;50.928;7.084;2022-12-20T12:09:41;3.58;;;2.15;;
37559;SDS011;23398;50.928;7.084;2022-12-20T12:17:53;4.95;;;2.20;;
37559;SDS011;23398;50.928;7.084;2022-12-20T12:25:53;2.63;;;1.90;;
37559;SDS011;23398;50.928;7.084;2022-12-20T12:28:19;3.20;;;2.15;;
37559;SDS011;23398;50.928;7.084;2022-12-20T12:30:47;4.60;;;2.10;;
37559;SDS011;23398;50.928;7.084;2022-12-20T12:33:23;4.22;;;2.13;;
37559;SDS011;23398;50.928;7.084;2022-12-20T12:36:07;4.07;;;2.40;;
37559;SDS011;23398;50.928;7.084;2022-12-20T12:47:12;2.97;;;2.08;;
37559;SDS011;23398;50.928;7.084;2022-12-20T12:49:43;3.15;;;2.15;;
37559;SDS011;23398;50.928;7.084;2022-12-20T12:58:14;3.00;;;2.08;;
37559;SDS011;23398;50.928;7.084;2022-12-20T13:01:02;3.75;;;2.22;;
37559;SDS011;23398;50.928;7.084;2022-12-20T13:09:21;3.85;;;1.80;;
37559;SDS011;23398;50.928;7.084;2022-12-20T13:12:41;4.13;;;2.00;;
37559;SDS011;23398;50.928;7.084;2022-12-20T13:14:58;3.78;;;1.98;;
37559;SDS011;23398;50.928;7.084;2022-12-20T13:19:55;3.92;;;2.10;;
37559;SDS011;23398;50.928;7.084;2022-12-20T13:22:25;3.70;;;2.15;;
37559;SDS011;23398;50.928;7.084;2022-12-20T13:27:22;3.50;;;2.00;;
37559;SDS011;23398;50.928;7.084;2022-12-20T13:30:00;2.83;;;1.88;;
37559;SDS011;23398;50.928;7.084;2022-12-20T13:37:56;2.45;;;2.05;;
37559;SDS011;23398;50.928;7.084;2022-12-20T13:40:41;3.75;;;2.13;;
37559;SDS011;23398;50.928;7.084;2022-12-20T13:45:48;2.42;;;1.88;;
37559;SDS011;23398;50.928;7.084;2022-12-20T13:48:17;3.72;;;2.10;;
37559;SDS011;23398;50.928;7.084;2022-12-20T13:51:03;3.00;;;2.00;;
37559;SDS011;23398;50.928;7.084;2022-12-20T13:53:31;3.50;;;2.00;;
37559;SDS011;23398;50.928;7.084;2022-12-20T13:55:57;3.63;;;2.10;;
37559;SDS011;23398;50.928;7.084;2022-12-20T13:58:30;2.97;;;1.83;;
37559;SDS011;23398;50.928;7.084;2022-12-20T14:01:04;3.13;;;1.95;;
37559;SDS011;23398;50.928;7.084;2022-12-20T14:03:31;2.35;;;1.92;;
37559;SDS011;23398;50.928;7.084;2022-12-20T14:05:59;2.38;;;1.90;;
37559;SDS011;23398;50.928;7.084;2022-12-20T14:08:33;2.85;;;2.00;;
37559;SDS011;23398;50.928;7.084;2022-12-20T14:11:10;2.70;;;2.13;;
37559;SDS011;23398;50.928;7.084;2022-12-20T14:13:36;4.15;;;1.92;;
37559;SDS011;23398;50.928;7.084;2022-12-20T14:16:35;3.30;;;2.05;;
37559;SDS011;23398;50.928;7.084;2022-12-20T14:21:20;3.80;;;2.10;;
37559;SDS011;23398;50.928;7.084;2022-12-20T14:23:47;3.60;;;2.20;;
37559;SDS011;23398;50.928;7.084;2022-12-20T14:26:16;3.28;;;2.05;;
37559;SDS011;23398;50.928;7.084;2022-12-20T14:28:50;3.33;;;2.00;;
37559;SDS011;23398;50.928;7.084;2022-12-20T14:31:25;3.95;;;2.33;;
37559;SDS011;23398;50.928;7.084;2022-12-20T14:34:16;5.28;;;1.95;;
37559;SDS011;23398;50.928;7.084;2022-12-20T14:36:46;2.17;;;1.80;;
37559;SDS011;23398;50.928;7.084;2022-12-20T14:39:26;3.60;;;2.78;;
37559;SDS011;23398;50.928;7.084;2022-12-20T14:41:57;4.75;;;2.58;;
37559;SDS011;23398;50.928;7.084;2022-12-20T14:44:28;4.57;;;2.70;;
37559;SDS011;23398;50.928;7.084;2022-12-20T14:46:56;2.97;;;2.60;;
37559;SDS011;23398;50.928;7.084;2022-12-20T14:49:30;5.45;;;3.03;;
37559;SDS011;23398;50.928;7.084;2022-12-20T14:52:15;3.80;;;2.67;;
37559;SDS011;23398;50.928;7.084;2022-12-20T14:55:06;4.80;;;2.95;;
37559;SDS011;23398;50.928;7.084;2022-12-20T14:57:42;5.75;;;3.05;;
37559;SDS011;23398;50.928;7.084;2022-12-20T15:08:10;3.42;;;1.95;;
37559;SDS011;23398;50.928;7.084;2022-12-20T15:13:40;4.50;;;1.92;;
37559;SDS011;23398;50.928;7.084;2022-12-20T15:16:14;3.10;;;2.30;;
37559;SDS011;23398;50.928;7.084;2022-12-20T15:18:47;3.28;;;2.13;;
37559;SDS011;23398;50.928;7.084;2022-12-20T15:21:14;4.30;;;2.22;;
37559;SDS011;23398;50.928;7.084;2022-12-20T15:23:47;4.82;;;2.58;;
37559;SDS011;23398;50.928;7.084;2022-12-20T15:26:18;4.95;;;2.58;;
37559;SDS011;23398;50.928;7.084;2022-12-20T15:28:46;4.18;;;2.70;;
37559;SDS011;23398;50.928;7.084;2022-12-20T15:31:13;5.20;;;2.70;;
37559;SDS011;23398;50.928;7.084;2022-12-20T15:33:40;3.22;;;2.50;;
37559;SDS011;23398;50.928;7.084;2022-12-20T15:36:10;4.75;;;2.72;;
37559;SDS011;23398;50.928;7.084;2022-12-20T15:38:40;3.00;;;2.40;;
37559;SDS011;23398;50.928;7.084;2022-12-20T15:41:07;3.40;;;2.63;;
37559;SDS011;23398;50.928;7.084;2022-12-20T15:43:43;3.65;;;2.50;;
37559;SDS011;23398;50.928;7.084;2022-12-20T15:46:09;3.22;;;2.35;;
37559;SDS011;23398;50.928;7.084;2022-12-20T15:48:34;3.28;;;2.63;;
37559;SDS011;23398;50.928;7.084;2022-12-20T15:51:00;3.25;;;2.42;;
37559;SDS011;23398;50.928;7.084;2022-12-20T15:53:31;4.40;;;2.10;;
37559;SDS011;23398;50.928;7.084;2022-12-20T15:55:58;3.58;;;2.15;;
37559;SDS011;23398;50.928;7.084;2022-12-20T15:58:24;4.07;;;2.50;;
37559;SDS011;23398;50.928;7.084;2022-12-20T16:00:54;3.20;;;2.40;;
37559;SDS011;23398;50.928;7.084;2022-12-20T16:03:25;3.33;;;2.50;;
37559;SDS011;23398;50.928;7.084;2022-12-20T16:05:55;3.10;;;2.45;;
37559;SDS011;23398;50.928;7.084;2022-12-20T16:08:21;4.25;;;2.47;;
37559;SDS011;23398;50.928;7.084;2022-12-20T16:10:47;3.88;;;2.67;;
37559;SDS011;23398;50.928;7.084;2022-12-20T16:13:15;6.00;;;2.63;;
37559;SDS011;23398;50.928;7.084;2022-12-20T16:15:51;3.60;;;2.30;;
37559;SDS011;23398;50.928;7.084;2022-12-20T16:18:17;4.88;;;2.65;;
37559;SDS011;23398;50.928;7.084;2022-12-20T16:20:43;3.17;;;2.20;;
37559;SDS011;23398;50.928;7.084;2022-12-20T16:23:13;4.53;;;3.22;;
37559;SDS011;23398;50.928;7.084;2022-12-20T16:25:46;6.07;;;3.67;;
37559;SDS011;23398;50.928;7.084;2022-12-20T16:28:12;4.57;;;3.20;;
37559;SDS011;23398;50.928;7.084;2022-12-20T16:30:38;5.43;;;3.53;;
37559;SDS011;23398;50.928;7.084;2022-12-20T16:33:04;7.40;;;3.75;;
37559;SDS011;23398;50.928;7.084;2022-12-20T16:35:31;3.50;;;2.60;;
37559;SDS011;23398;50.928;7.084;2022-12-20T16:38:00;3.85;;;2.80;;
37559;SDS011;23398;50.928;7.084;2022-12-20T16:40:30;3.95;;;2.47;;
37559;SDS011;23398;50.928;7.084;2022-12-20T16:42:57;5.68;;;2.65;;
37559;SDS011;23398;50.928;7.084;2022-12-20T16:45:24;4.38;;;2.50;;
37559;SDS011;23398;50.928;7.084;2022-12-20T16:47:52;7.03;;;2.63;;
37559;SDS011;23398;50.928;7.084;2022-12-20T16:50:19;4.70;;;2.40;;
37559;SDS011;23398;50.928;7.084;2022-12-20T16:52:46;4.10;;;2.38;;
37559;SDS011;23398;50.928;7.084;2022-12-20T16:55:19;3.90;;;2.63;;
37559;SDS011;23398;50.928;7.084;2022-12-20T16:57:46;2.72;;;2.35;;
37559;SDS011;23398;50.928;7.084;2022-12-20T17:00:17;13.45;;;2.50;;
37559;SDS011;23398;50.928;7.084;2022-12-20T17:02:43;4.72;;;2.78;;
37559;SDS011;23398;50.928;7.084;2022-12-20T17:05:30;4.18;;;2.75;;
37559;SDS011;23398;50.928;7.084;2022-12-20T17:07:56;4.72;;;2.53;;